sensor_id;sensor_type;location;lat;lon;timestamp;pressure;altitude;pressure_sealevel;temperature;humidity
77027;BME280;65956;52.986;17.490;2024-02-23T00:32:46;97637.26;;;7.42;100.00
77027;BME280;65956;52.986;17.490;2024-02-23T00:35:13;97635.89;;;7.48;100.00
77027;BME280;65956;52.986;17.490;2024-02-23T00:37:39;97636.61;;;7.53;100.00
77027;BME280;65956;52.986;17.490;2024-02-23T00:40:05;97629.43;;;7.57;100.00
77027;BME280;65956;52.986;17.490;2024-02-23T00:42:32;97625.81;;;7.61;100.00
77027;BME280;65956;52.986;17.490;2024-02-23T00:44:58;97621.90;;;7.64;100.00
77027;BME280;65956;52.986;17.490;2024-02-23T00:47:26;97616.09;;;7.65;100.00
77027;BME280;65956;52.986;17.490;2024-02-23T00:49:52;97614.08;;;7.67;100.00
77027;BME280;65956;52.986;17.490;2024-02-23T00:52:18;97606.86;;;7.69;100.00
77027;BME280;65956;52.986;17.490;2024-02-23T00:54:44;97605.59;;;7.69;100.00
77027;BME280;65956;52.986;17.490;2024-02-23T00:57:10;97602.16;;;7.70;100.00
77027;BME280;65956;52.986;17.490;2024-02-23T00:59:37;97599.24;;;7.69;100.00
77027;BME280;65956;52.986;17.490;2024-02-23T01:02:03;97608.27;;;7.69;100.00
77027;BME280;65956;52.986;17.490;2024-02-23T01:04:29;97605.27;;;7.70;100.00
77027;BME280;65956;52.986;17.490;2024-02-23T01:06:55;97609.11;;;7.71;100.00
77027;BME280;65956;52.986;17.490;2024-02-23T01:09:21;97610.29;;;7.71;100.00
77027;BME280;65956;52.986;17.490;2024-02-23T01:11:47;97605.94;;;7.71;100.00
77027;BME280;65956;52.986;17.490;2024-02-23T01:14:14;97605.07;;;7.71;100.00
77027;BME280;65956;52.986;17.490;2024-02-23T01:16:40;97607.19;;;7.73;100.00
77027;BME280;65956;52.986;17.490;2024-02-23T01:19:06;97602.52;;;7.74;100.00
77027;BME280;65956;52.986;17.490;2024-02-23T01:21:32;97611.92;;;7.74;100.00
77027;BME280;65956;52.986;17.490;2024-02-23T01:23:58;97614.06;;;7.74;100.00
77027;BME280;65956;52.986;17.490;2024-02-23T01:26:26;97613.17;;;7.74;100.00
77027;BME280;65956;52.986;17.490;2024-02-23T01:28:53;97615.38;;;7.76;100.00
77027;BME280;65956;52.986;17.490;2024-02-23T01:31:20;97618.67;;;7.78;100.00
77027;BME280;65956;52.986;17.490;2024-02-23T01:33:46;97618.87;;;7.80;100.00
77027;BME280;65956;52.986;17.490;2024-02-23T01:36:13;97621.31;;;7.81;100.00
77027;BME280;65956;52.986;17.490;2024-02-23T01:38:39;97619.58;;;7.80;100.00
77027;BME280;65956;52.986;17.490;2024-02-23T01:41:05;97619.69;;;7.78;100.00
77027;BME280;65956;52.986;17.490;2024-02-23T01:43:32;97627.08;;;7.77;100.00
77027;BME280;65956;52.986;17.490;2024-02-23T01:45:58;97631.05;;;7.76;100.00
77027;BME280;65956;52.986;17.490;2024-02-23T01:48:25;97628.66;;;7.77;100.00
77027;BME280;65956;52.986;17.490;2024-02-23T01:50:53;97633.44;;;7.81;100.00
77027;BME280;65956;52.986;17.490;2024-02-23T01:53:20;97631.08;;;7.80;100.00
77027;BME280;65956;52.986;17.490;2024-02-23T01:55:47;97630.64;;;7.78;100.00
77027;BME280;65956;52.986;17.490;2024-02-23T01:58:14;97626.23;;;7.75;100.00
77027;BME280;65956;52.986;17.490;2024-02-23T02:00:40;97618.92;;;7.72;100.00
77027;BME280;65956;52.986;17.490;2024-02-23T02:03:07;97618.80;;;7.69;100.00
77027;BME280;65956;52.986;17.490;2024-02-23T02:05:36;97619.87;;;7.66;100.00
77027;BME280;65956;52.986;17.490;2024-02-23T02:08:02;97623.54;;;7.65;100.00
77027;BME280;65956;52.986;17.490;2024-02-23T02:10:28;97621.63;;;7.65;100.00
77027;BME280;65956;52.986;17.490;2024-02-23T02:12:55;97623.02;;;7.69;100.00
77027;BME280;65956;52.986;17.490;2024-02-23T02:15:21;97622.23;;;7.72;100.00
77027;BME280;65956;52.986;17.490;2024-02-23T02:17:50;97622.98;;;7.76;100.00
77027;BME280;65956;52.986;17.490;2024-02-23T02:20:17;97623.98;;;7.78;100.00
77027;BME280;65956;52.986;17.490;2024-02-23T02:22:44;97620.94;;;7.80;100.00
77027;BME280;65956;52.986;17.490;2024-02-23T02:25:14;97620.59;;;7.82;100.00
77027;BME280;65956;52.986;17.490;2024-02-23T02:27:41;97624.21;;;7.83;100.00
77027;BME280;65956;52.986;17.490;2024-02-23T02:30:08;97624.77;;;7.83;100.00
77027;BME280;65956;52.986;17.490;2024-02-23T02:32:36;97619.27;;;7.84;100.00
77027;BME280;65956;52.986;17.490;2024-02-23T02:35:02;97620.68;;;7.86;100.00
77027;BME280;65956;52.986;17.490;2024-02-23T02:37:28;97614.00;;;7.88;100.00
77027;BME280;65956;52.986;17.490;2024-02-23T02:39:54;97609.86;;;7.89;100.00
77027;BME280;65956;52.986;17.490;2024-02-23T02:42:20;97612.09;;;7.89;100.00
77027;BME280;65956;52.986;17.490;2024-02-23T02:44:46;97610.74;;;7.88;100.00
77027;BME280;65956;52.986;17.490;2024-02-23T02:47:12;97613.04;;;7.88;100.00
77027;BME280;65956;52.986;17.490;2024-02-23T02:49:39;97614.77;;;7.90;100.00
77027;BME280;65956;52.986;17.490;2024-02-23T02:52:06;97623.89;;;7.93;100.00
77027;BME280;65956;52.986;17.490;2024-02-23T02:54:34;97626.23;;;7.96;100.00
77027;BME280;65956;52.986;17.490;2024-02-23T02:57:00;97627.54;;;7.99;100.00
77027;BME280;65956;52.986;17.490;2024-02-23T02:59:26;97636.25;;;8.03;100.00
77027;BME280;65956;52.986;17.490;2024-02-23T03:01:52;97634.98;;;8.08;100.00
77027;BME280;65956;52.986;17.490;2024-02-23T03:04:18;97633.64;;;8.12;100.00
77027;BME280;65956;52.986;17.490;2024-02-23T03:06:44;97636.48;;;8.17;100.00
77027;BME280;65956;52.986;17.490;2024-02-23T03:09:11;97628.19;;;8.22;100.00
77027;BME280;65956;52.986;17.490;2024-02-23T03:11:37;97626.34;;;8.23;100.00
77027;BME280;65956;52.986;17.490;2024-02-23T03:14:03;97632.27;;;8.23;100.00
77027;BME280;65956;52.986;17.490;2024-02-23T03:16:29;97636.77;;;8.24;100.00
77027;BME280;65956;52.986;17.490;2024-02-23T03:18:57;97637.09;;;8.24;100.00
77027;BME280;65956;52.986;17.490;2024-02-23T03:21:23;97638.19;;;8.25;100.00
77027;BME280;65956;52.986;17.490;2024-02-23T03:23:49;97640.24;;;8.26;100.00
77027;BME280;65956;52.986;17.490;2024-02-23T03:26:15;97647.66;;;8.27;100.00
77027;BME280;65956;52.986;17.490;2024-02-23T03:28:43;97648.44;;;8.29;100.00
77027;BME280;65956;52.986;17.490;2024-02-23T03:31:09;97651.63;;;8.28;100.00
77027;BME280;65956;52.986;17.490;2024-02-23T03:33:35;97655.13;;;8.33;100.00
77027;BME280;65956;52.986;17.490;2024-02-23T03:36:02;97664.41;;;8.37;100.00
77027;BME280;65956;52.986;17.490;2024-02-23T03:38:29;97671.80;;;8.41;100.00
77027;BME280;65956;52.986;17.490;2024-02-23T03:40:55;97672.39;;;8.48;100.00
77027;BME280;65956;52.986;17.490;2024-02-23T03:43:22;97679.95;;;8.51;100.00
77027;BME280;65956;52.986;17.490;2024-02-23T03:45:48;97682.20;;;8.54;100.00
77027;BME280;65956;52.986;17.490;2024-02-23T03:48:14;97681.94;;;8.56;100.00
77027;BME280;65956;52.986;17.490;2024-02-23T03:50:40;97681.02;;;8.58;100.00
77027;BME280;65956;52.986;17.490;2024-02-23T03:53:06;97689.30;;;8.61;100.00
77027;BME280;65956;52.986;17.490;2024-02-23T03:55:32;97693.63;;;8.62;100.00
77027;BME280;65956;52.986;17.490;2024-02-23T03:57:58;97699.30;;;8.65;100.00
77027;BME280;65956;52.986;17.490;2024-02-23T04:00:25;97699.77;;;8.65;100.00
77027;BME280;65956;52.986;17.490;2024-02-23T04:02:51;97699.13;;;8.70;100.00
77027;BME280;65956;52.986;17.490;2024-02-23T04:05:18;97706.45;;;8.74;100.00
77027;BME280;65956;52.986;17.490;2024-02-23T04:07:45;97698.77;;;8.77;100.00
77027;BME280;65956;52.986;17.490;2024-02-23T04:10:11;97714.77;;;8.82;100.00
77027;BME280;65956;52.986;17.490;2024-02-23T04:12:43;97714.19;;;8.83;100.00
77027;BME280;65956;52.986;17.490;2024-02-23T04:15:10;97709.33;;;8.84;100.00
77027;BME280;65956;52.986;17.490;2024-02-23T04:17:36;97719.39;;;8.85;100.00
77027;BME280;65956;52.986;17.490;2024-02-23T04:20:07;97719.23;;;8.85;100.00
77027;BME280;65956;52.986;17.490;2024-02-23T04:22:33;97723.34;;;8.87;100.00
77027;BME280;65956;52.986;17.490;2024-02-23T04:24:59;97728.48;;;8.87;100.00
77027;BME280;65956;52.986;17.490;2024-02-23T04:27:25;97732.84;;;8.88;100.00
77027;BME280;65956;52.986;17.490;2024-02-23T04:29:51;97733.95;;;8.88;100.00
77027;BME280;65956;52.986;17.490;2024-02-23T04:32:18;97736.06;;;8.89;100.00
77027;BME280;65956;52.986;17.490;2024-02-23T04:34:44;97740.33;;;8.91;100.00
77027;BME280;65956;52.986;17.490;2024-02-23T04:37:10;97746.02;;;8.91;100.00
77027;BME280;65956;52.986;17.490;2024-02-23T04:39:36;97752.34;;;8.93;100.00
77027;BME280;65956;52.986;17.490;2024-02-23T04:42:04;97761.38;;;8.93;100.00
77027;BME280;65956;52.986;17.490;2024-02-23T04:44:30;97763.52;;;8.93;100.00
77027;BME280;65956;52.986;17.490;2024-02-23T04:46:56;97761.88;;;8.92;100.00
77027;BME280;65956;52.986;17.490;2024-02-23T04:49:22;97770.82;;;8.93;100.00
77027;BME280;65956;52.986;17.490;2024-02-23T04:51:49;97777.50;;;8.93;100.00
77027;BME280;65956;52.986;17.490;2024-02-23T04:54:15;97772.41;;;8.89;100.00
77027;BME280;65956;52.986;17.490;2024-02-23T04:56:41;97770.79;;;8.87;100.00
77027;BME280;65956;52.986;17.490;2024-02-23T04:59:07;97773.80;;;8.87;100.00
77027;BME280;65956;52.986;17.490;2024-02-23T05:01:37;97769.63;;;8.84;100.00
77027;BME280;65956;52.986;17.490;2024-02-23T05:04:03;97773.89;;;8.86;100.00
77027;BME280;65956;52.986;17.490;2024-02-23T05:06:30;97769.46;;;8.85;100.00
77027;BME280;65956;52.986;17.490;2024-02-23T05:08:56;97779.30;;;8.90;100.00
77027;BME280;65956;52.986;17.490;2024-02-23T05:11:22;97793.61;;;8.92;100.00
77027;BME280;65956;52.986;17.490;2024-02-23T05:13:48;97795.17;;;8.94;100.00
77027;BME280;65956;52.986;17.490;2024-02-23T05:16:14;97800.28;;;8.92;100.00
77027;BME280;65956;52.986;17.490;2024-02-23T05:18:40;97811.18;;;8.92;100.00
77027;BME280;65956;52.986;17.490;2024-02-23T05:21:07;97810.50;;;8.93;100.00
77027;BME280;65956;52.986;17.490;2024-02-23T05:23:33;97814.58;;;8.96;100.00
77027;BME280;65956;52.986;17.490;2024-02-23T05:26:00;97817.05;;;9.00;100.00
77027;BME280;65956;52.986;17.490;2024-02-23T05:28:26;97831.25;;;9.05;100.00
77027;BME280;65956;52.986;17.490;2024-02-23T05:30:52;97831.02;;;9.10;100.00
77027;BME280;65956;52.986;17.490;2024-02-23T05:33:18;97834.35;;;9.14;100.00
77027;BME280;65956;52.986;17.490;2024-02-23T05:35:47;97839.48;;;9.21;100.00
77027;BME280;65956;52.986;17.490;2024-02-23T05:38:16;97849.18;;;9.29;100.00
77027;BME280;65956;52.986;17.490;2024-02-23T05:40:42;97857.48;;;9.36;100.00
77027;BME280;65956;52.986;17.490;2024-02-23T05:43:09;97865.20;;;9.38;100.00
77027;BME280;65956;52.986;17.490;2024-02-23T05:45:35;97872.13;;;9.43;99.89
77027;BME280;65956;52.986;17.490;2024-02-23T05:48:01;97884.02;;;9.48;99.36
77027;BME280;65956;52.986;17.490;2024-02-23T05:50:27;97886.85;;;9.49;99.50
77027;BME280;65956;52.986;17.490;2024-02-23T05:52:53;97899.06;;;9.46;99.57
77027;BME280;65956;52.986;17.490;2024-02-23T05:55:19;97908.41;;;9.47;99.32
77027;BME280;65956;52.986;17.490;2024-02-23T05:57:45;97912.52;;;9.48;98.94
77027;BME280;65956;52.986;17.490;2024-02-23T06:00:11;97915.99;;;9.50;98.18
77027;BME280;65956;52.986;17.490;2024-02-23T06:02:38;97919.50;;;9.54;96.92
77027;BME280;65956;52.986;17.490;2024-02-23T06:05:05;97931.89;;;9.58;96.23
77027;BME280;65956;52.986;17.490;2024-02-23T06:07:34;97942.96;;;9.62;95.41
77027;BME280;65956;52.986;17.490;2024-02-23T06:10:00;97955.95;;;9.68;94.36
77027;BME280;65956;52.986;17.490;2024-02-23T06:12:27;97948.31;;;9.73;93.57
77027;BME280;65956;52.986;17.490;2024-02-23T06:14:53;97963.66;;;9.81;92.45
77027;BME280;65956;52.986;17.490;2024-02-23T06:17:21;97972.09;;;9.85;92.40
77027;BME280;65956;52.986;17.490;2024-02-23T06:19:49;97983.45;;;9.85;92.71
77027;BME280;65956;52.986;17.490;2024-02-23T06:22:16;97991.49;;;9.84;92.56
77027;BME280;65956;52.986;17.490;2024-02-23T06:24:49;98003.50;;;9.88;90.36
77027;BME280;65956;52.986;17.490;2024-02-23T06:27:15;98007.81;;;9.92;89.21
77027;BME280;65956;52.986;17.490;2024-02-23T06:29:42;98013.07;;;9.91;91.16
77027;BME280;65956;52.986;17.490;2024-02-23T06:32:08;98028.20;;;9.90;92.49
77027;BME280;65956;52.986;17.490;2024-02-23T06:34:34;98029.91;;;9.88;93.48
77027;BME280;65956;52.986;17.490;2024-02-23T06:37:00;98035.28;;;9.84;93.78
77027;BME280;65956;52.986;17.490;2024-02-23T06:39:26;98040.02;;;9.81;94.10
77027;BME280;65956;52.986;17.490;2024-02-23T06:41:52;98044.72;;;9.76;89.28
77027;BME280;65956;52.986;17.490;2024-02-23T06:44:19;98059.45;;;9.75;83.87
77027;BME280;65956;52.986;17.490;2024-02-23T06:46:45;98082.64;;;9.75;78.78
77027;BME280;65956;52.986;17.490;2024-02-23T06:49:12;98071.11;;;9.75;75.51
77027;BME280;65956;52.986;17.490;2024-02-23T06:51:38;98077.61;;;9.71;73.24
77027;BME280;65956;52.986;17.490;2024-02-23T06:54:06;98087.33;;;9.70;71.33
77027;BME280;65956;52.986;17.490;2024-02-23T06:56:34;98080.73;;;9.66;72.30
77027;BME280;65956;52.986;17.490;2024-02-23T06:59:00;98089.75;;;9.58;70.60
77027;BME280;65956;52.986;17.490;2024-02-23T07:01:26;98098.27;;;9.56;71.13
77027;BME280;65956;52.986;17.490;2024-02-23T07:03:53;98097.61;;;9.52;70.77
77027;BME280;65956;52.986;17.490;2024-02-23T07:06:20;98105.38;;;9.48;71.11
77027;BME280;65956;52.986;17.490;2024-02-23T07:08:46;98108.69;;;9.44;72.83
77027;BME280;65956;52.986;17.490;2024-02-23T07:11:15;98112.40;;;9.34;72.52
77027;BME280;65956;52.986;17.490;2024-02-23T07:13:45;98106.12;;;9.29;72.69
77027;BME280;65956;52.986;17.490;2024-02-23T07:16:11;98117.21;;;9.24;72.99
77027;BME280;65956;52.986;17.490;2024-02-23T07:18:37;98126.74;;;9.18;73.13
77027;BME280;65956;52.986;17.490;2024-02-23T07:21:04;98131.48;;;9.13;74.15
77027;BME280;65956;52.986;17.490;2024-02-23T07:23:30;98133.27;;;9.09;74.22
77027;BME280;65956;52.986;17.490;2024-02-23T07:25:56;98136.16;;;9.08;74.19
77027;BME280;65956;52.986;17.490;2024-02-23T07:28:22;98140.06;;;9.07;74.58
77027;BME280;65956;52.986;17.490;2024-02-23T07:30:48;98149.74;;;9.06;73.84
77027;BME280;65956;52.986;17.490;2024-02-23T07:33:15;98150.30;;;9.07;74.55
77027;BME280;65956;52.986;17.490;2024-02-23T07:35:41;98154.52;;;9.05;74.80
77027;BME280;65956;52.986;17.490;2024-02-23T07:38:08;98155.56;;;9.04;74.43
77027;BME280;65956;52.986;17.490;2024-02-23T07:40:34;98156.70;;;9.03;75.48
77027;BME280;65956;52.986;17.490;2024-02-23T07:43:00;98153.21;;;9.02;75.37
77027;BME280;65956;52.986;17.490;2024-02-23T07:45:27;98167.52;;;9.00;75.86
77027;BME280;65956;52.986;17.490;2024-02-23T07:47:53;98175.08;;;8.98;75.47
77027;BME280;65956;52.986;17.490;2024-02-23T07:50:20;98175.48;;;8.97;74.44
77027;BME280;65956;52.986;17.490;2024-02-23T07:52:46;98173.25;;;8.99;74.39
77027;BME280;65956;52.986;17.490;2024-02-23T07:55:12;98184.26;;;9.01;74.92
77027;BME280;65956;52.986;17.490;2024-02-23T07:57:38;98188.84;;;9.03;75.09
77027;BME280;65956;52.986;17.490;2024-02-23T08:00:06;98193.88;;;9.06;75.47
77027;BME280;65956;52.986;17.490;2024-02-23T08:02:38;98196.61;;;9.09;76.04
77027;BME280;65956;52.986;17.490;2024-02-23T08:05:07;98194.84;;;9.14;76.04
77027;BME280;65956;52.986;17.490;2024-02-23T08:07:33;98196.86;;;9.17;76.08
77027;BME280;65956;52.986;17.490;2024-02-23T08:09:59;98210.48;;;9.19;76.66
77027;BME280;65956;52.986;17.490;2024-02-23T08:12:26;98216.99;;;9.20;75.88
77027;BME280;65956;52.986;17.490;2024-02-23T08:14:52;98221.33;;;9.22;76.91
77027;BME280;65956;52.986;17.490;2024-02-23T08:17:19;98228.92;;;9.24;77.69
77027;BME280;65956;52.986;17.490;2024-02-23T08:19:46;98229.00;;;9.25;77.99
77027;BME280;65956;52.986;17.490;2024-02-23T08:22:12;98233.73;;;9.27;78.29
77027;BME280;65956;52.986;17.490;2024-02-23T08:24:38;98240.93;;;9.30;78.67
77027;BME280;65956;52.986;17.490;2024-02-23T08:27:04;98247.41;;;9.34;78.84
77027;BME280;65956;52.986;17.490;2024-02-23T08:29:31;98252.14;;;9.36;79.02
77027;BME280;65956;52.986;17.490;2024-02-23T08:31:57;98256.45;;;9.40;78.70
77027;BME280;65956;52.986;17.490;2024-02-23T08:34:23;98259.75;;;9.44;79.14
77027;BME280;65956;52.986;17.490;2024-02-23T08:36:51;98263.19;;;9.49;79.14
77027;BME280;65956;52.986;17.490;2024-02-23T08:39:17;98272.34;;;9.54;78.66
77027;BME280;65956;52.986;17.490;2024-02-23T08:41:43;98276.19;;;9.59;78.73
77027;BME280;65956;52.986;17.490;2024-02-23T08:44:10;98285.52;;;9.62;77.47
77027;BME280;65956;52.986;17.490;2024-02-23T08:46:36;98282.00;;;9.64;76.40
77027;BME280;65956;52.986;17.490;2024-02-23T08:49:05;98282.35;;;9.67;77.06
77027;BME280;65956;52.986;17.490;2024-02-23T08:51:31;98282.06;;;9.65;76.85
77027;BME280;65956;52.986;17.490;2024-02-23T08:53:57;98288.44;;;9.63;75.25
77027;BME280;65956;52.986;17.490;2024-02-23T08:56:29;98293.13;;;9.63;74.68
77027;BME280;65956;52.986;17.490;2024-02-23T08:58:55;98298.34;;;9.66;74.03
77027;BME280;65956;52.986;17.490;2024-02-23T09:01:21;98303.41;;;9.67;74.16
77027;BME280;65956;52.986;17.490;2024-02-23T09:03:48;98309.13;;;9.67;72.93
77027;BME280;65956;52.986;17.490;2024-02-23T09:06:14;98310.48;;;9.66;72.20
77027;BME280;65956;52.986;17.490;2024-02-23T09:08:40;98313.68;;;9.66;71.55
77027;BME280;65956;52.986;17.490;2024-02-23T09:11:07;98323.58;;;9.62;70.53
77027;BME280;65956;52.986;17.490;2024-02-23T09:13:33;98329.46;;;9.61;70.76
77027;BME280;65956;52.986;17.490;2024-02-23T09:15:59;98330.67;;;9.60;69.28
77027;BME280;65956;52.986;17.490;2024-02-23T09:18:25;98336.13;;;9.62;70.95
77027;BME280;65956;52.986;17.490;2024-02-23T09:20:51;98338.89;;;9.63;71.29
77027;BME280;65956;52.986;17.490;2024-02-23T09:23:17;98349.64;;;9.69;72.28
77027;BME280;65956;52.986;17.490;2024-02-23T09:25:43;98350.53;;;9.74;73.56
77027;BME280;65956;52.986;17.490;2024-02-23T09:28:09;98357.77;;;9.81;73.58
77027;BME280;65956;52.986;17.490;2024-02-23T09:30:37;98378.26;;;9.88;73.19
77027;BME280;65956;52.986;17.490;2024-02-23T09:33:04;98386.98;;;9.96;72.49
77027;BME280;65956;52.986;17.490;2024-02-23T09:35:30;98390.84;;;10.01;71.31
77027;BME280;65956;52.986;17.490;2024-02-23T09:37:56;98403.06;;;10.02;69.76
77027;BME280;65956;52.986;17.490;2024-02-23T09:40:22;98411.25;;;9.96;67.39
77027;BME280;65956;52.986;17.490;2024-02-23T09:42:55;98416.98;;;9.94;67.97
77027;BME280;65956;52.986;17.490;2024-02-23T09:45:24;98432.05;;;9.90;65.80
77027;BME280;65956;52.986;17.490;2024-02-23T09:47:53;98431.73;;;9.82;65.56
77027;BME280;65956;52.986;17.490;2024-02-23T09:50:22;98450.00;;;9.75;66.43
77027;BME280;65956;52.986;17.490;2024-02-23T09:52:49;98451.13;;;9.75;67.74
77027;BME280;65956;52.986;17.490;2024-02-23T09:55:17;98452.91;;;9.71;67.05
77027;BME280;65956;52.986;17.490;2024-02-23T09:57:45;98450.74;;;9.73;68.60
77027;BME280;65956;52.986;17.490;2024-02-23T10:00:16;98450.45;;;9.78;69.70
77027;BME280;65956;52.986;17.490;2024-02-23T10:02:43;98449.11;;;9.86;70.51
77027;BME280;65956;52.986;17.490;2024-02-23T10:05:14;98455.78;;;9.93;70.65
77027;BME280;65956;52.986;17.490;2024-02-23T10:07:43;98460.55;;;10.02;70.19
77027;BME280;65956;52.986;17.490;2024-02-23T10:10:10;98463.27;;;10.07;68.42
77027;BME280;65956;52.986;17.490;2024-02-23T10:12:37;98470.63;;;10.03;66.68
77027;BME280;65956;52.986;17.490;2024-02-23T10:15:03;98475.06;;;10.05;67.25
77027;BME280;65956;52.986;17.490;2024-02-23T10:17:30;98475.11;;;10.01;65.49
77027;BME280;65956;52.986;17.490;2024-02-23T10:19:56;98478.84;;;10.01;66.03
77027;BME280;65956;52.986;17.490;2024-02-23T10:22:30;98482.46;;;10.04;66.80
77027;BME280;65956;52.986;17.490;2024-02-23T10:24:57;98484.84;;;10.12;67.93
77027;BME280;65956;52.986;17.490;2024-02-23T10:27:23;98489.19;;;10.25;69.36
77027;BME280;65956;52.986;17.490;2024-02-23T10:29:50;98490.59;;;10.35;67.82
77027;BME280;65956;52.986;17.490;2024-02-23T10:32:18;98497.20;;;10.41;67.20
77027;BME280;65956;52.986;17.490;2024-02-23T10:34:47;98490.27;;;10.42;66.02
77027;BME280;65956;52.986;17.490;2024-02-23T10:37:15;98500.23;;;10.39;65.43
77027;BME280;65956;52.986;17.490;2024-02-23T10:39:42;98492.54;;;10.38;64.79
77027;BME280;65956;52.986;17.490;2024-02-23T10:42:09;98506.73;;;10.41;64.53
77027;BME280;65956;52.986;17.490;2024-02-23T10:44:37;98505.36;;;10.51;65.67
77027;BME280;65956;52.986;17.490;2024-02-23T10:47:04;98509.60;;;10.62;65.74
77027;BME280;65956;52.986;17.490;2024-02-23T10:49:31;98513.13;;;10.67;63.30
77027;BME280;65956;52.986;17.490;2024-02-23T10:51:57;98510.33;;;10.68;63.12
77027;BME280;65956;52.986;17.490;2024-02-23T10:54:23;98519.38;;;10.69;63.50
77027;BME280;65956;52.986;17.490;2024-02-23T10:56:50;98522.06;;;10.78;64.10
77027;BME280;65956;52.986;17.490;2024-02-23T10:59:17;98528.88;;;10.79;62.72
77027;BME280;65956;52.986;17.490;2024-02-23T11:01:49;98534.70;;;10.79;62.72
77027;BME280;65956;52.986;17.490;2024-02-23T11:04:17;98525.80;;;10.71;62.26
77027;BME280;65956;52.986;17.490;2024-02-23T11:06:49;98539.67;;;10.62;61.76
77027;BME280;65956;52.986;17.490;2024-02-23T11:09:16;98535.92;;;10.51;61.61
77027;BME280;65956;52.986;17.490;2024-02-23T11:12:08;98539.66;;;10.57;62.11
77027;BME280;65956;52.986;17.490;2024-02-23T11:14:37;98532.45;;;10.67;61.98
77027;BME280;65956;52.986;17.490;2024-02-23T11:17:04;98534.30;;;10.78;61.93
77027;BME280;65956;52.986;17.490;2024-02-23T11:19:38;98539.07;;;10.73;60.85
77027;BME280;65956;52.986;17.490;2024-02-23T11:22:05;98549.85;;;10.71;61.76
77027;BME280;65956;52.986;17.490;2024-02-23T11:24:42;98550.66;;;10.68;62.40
77027;BME280;65956;52.986;17.490;2024-02-23T11:27:14;98553.39;;;10.67;62.92
77027;BME280;65956;52.986;17.490;2024-02-23T11:29:45;98560.71;;;10.53;60.29
77027;BME280;65956;52.986;17.490;2024-02-23T11:32:17;98568.83;;;10.47;61.41
77027;BME280;65956;52.986;17.490;2024-02-23T11:34:57;98566.80;;;10.49;61.61
77027;BME280;65956;52.986;17.490;2024-02-23T11:37:23;98559.19;;;10.61;62.55
77027;BME280;65956;52.986;17.490;2024-02-23T11:39:49;98555.44;;;10.76;62.72
77027;BME280;65956;52.986;17.490;2024-02-23T11:42:16;98561.86;;;10.90;61.56
77027;BME280;65956;52.986;17.490;2024-02-23T11:44:43;98571.95;;;11.11;60.47
77027;BME280;65956;52.986;17.490;2024-02-23T11:47:09;98568.66;;;11.07;59.33
77027;BME280;65956;52.986;17.490;2024-02-23T11:49:35;98565.56;;;11.00;60.54
77027;BME280;65956;52.986;17.490;2024-02-23T11:52:02;98559.76;;;11.06;60.48
77027;BME280;65956;52.986;17.490;2024-02-23T11:54:28;98559.44;;;11.56;58.94
77027;BME280;65956;52.986;17.490;2024-02-23T11:56:56;98563.73;;;11.94;57.85
77027;BME280;65956;52.986;17.490;2024-02-23T11:59:22;98562.37;;;11.84;59.65
77027;BME280;65956;52.986;17.490;2024-02-23T12:01:49;98559.77;;;11.60;58.98
77027;BME280;65956;52.986;17.490;2024-02-23T12:04:15;98565.55;;;11.42;59.34
77027;BME280;65956;52.986;17.490;2024-02-23T12:06:42;98564.30;;;11.23;59.19
77027;BME280;65956;52.986;17.490;2024-02-23T12:09:09;98576.55;;;11.07;57.98
77027;BME280;65956;52.986;17.490;2024-02-23T12:11:35;98576.27;;;10.84;57.44
77027;BME280;65956;52.986;17.490;2024-02-23T12:14:02;98575.98;;;10.69;58.42
77027;BME280;65956;52.986;17.490;2024-02-23T12:16:28;98581.94;;;10.48;57.77
77027;BME280;65956;52.986;17.490;2024-02-23T12:18:57;98579.46;;;10.32;58.47
77027;BME280;65956;52.986;17.490;2024-02-23T12:21:24;98577.86;;;10.19;59.91
77027;BME280;65956;52.986;17.490;2024-02-23T12:23:51;98584.11;;;10.10;61.22
77027;BME280;65956;52.986;17.490;2024-02-23T12:26:18;98583.43;;;10.05;61.51
77027;BME280;65956;52.986;17.490;2024-02-23T12:28:44;98587.48;;;9.96;60.92
77027;BME280;65956;52.986;17.490;2024-02-23T12:31:11;98591.32;;;9.93;61.96
77027;BME280;65956;52.986;17.490;2024-02-23T12:33:39;98597.16;;;9.88;61.54
77027;BME280;65956;52.986;17.490;2024-02-23T12:36:10;98594.17;;;9.84;61.61
77027;BME280;65956;52.986;17.490;2024-02-23T12:38:36;98601.64;;;9.84;62.55
77027;BME280;65956;52.986;17.490;2024-02-23T12:41:03;98610.14;;;9.87;63.15
77027;BME280;65956;52.986;17.490;2024-02-23T12:43:30;98612.41;;;9.89;63.40
77027;BME280;65956;52.986;17.490;2024-02-23T12:45:57;98622.99;;;9.88;62.09
77027;BME280;65956;52.986;17.490;2024-02-23T12:48:23;98631.45;;;9.85;62.22
77027;BME280;65956;52.986;17.490;2024-02-23T12:50:50;98638.93;;;9.83;62.70
77027;BME280;65956;52.986;17.490;2024-02-23T12:56:00;98655.06;;;9.83;65.28
77027;BME280;65956;52.986;17.490;2024-02-23T12:58:26;98657.23;;;9.82;65.37
77027;BME280;65956;52.986;17.490;2024-02-23T13:00:53;98667.00;;;9.82;65.84
77027;BME280;65956;52.986;17.490;2024-02-23T13:03:19;98670.52;;;9.79;65.00
77027;BME280;65956;52.986;17.490;2024-02-23T13:05:46;98676.50;;;9.75;65.47
77027;BME280;65956;52.986;17.490;2024-02-23T13:08:13;98680.81;;;9.71;65.79
77027;BME280;65956;52.986;17.490;2024-02-23T13:10:39;98691.17;;;9.67;65.81
77027;BME280;65956;52.986;17.490;2024-02-23T13:13:05;98687.70;;;9.63;65.70
77027;BME280;65956;52.986;17.490;2024-02-23T13:15:32;98689.83;;;9.63;65.76
77027;BME280;65956;52.986;17.490;2024-02-23T13:17:58;98692.23;;;9.63;65.92
77027;BME280;65956;52.986;17.490;2024-02-23T13:20:24;98695.78;;;9.67;66.24
77027;BME280;65956;52.986;17.490;2024-02-23T13:22:50;98695.18;;;9.75;66.44
77027;BME280;65956;52.986;17.490;2024-02-23T13:25:16;98687.71;;;9.85;66.46
77027;BME280;65956;52.986;17.490;2024-02-23T13:27:42;98680.10;;;9.96;66.11